Herndon, Kentucky
Current Conditions -  °F | °C
As of 5:58 AM on Friday 21 Nov 2014 (Local Time) from KHOP Reporting Station
Clear Clear  
Wind Chill: 20°   Ceiling: Unl
Heat Index: 26°   Visibility: 10mi
Dew Point: 20°   Wind: 6mph
Humidity: 78%   Direction: 90°E
Pressure: 30.41"   Gusts: NA
Location:  36.73°N, 87.57°W
Report Text: KHOP 211158Z AUTO 09005KT 10SM CLR M03/M06 A3041 RMK AO2 SLP305 T10321065 11023 21036 52013
Loading
Personal Weather Stations






























Interactive Weather Map New forecast layout! Learn more

10-Day Weather Forecast

Advertisements
Track Severe Weather on mobile